Time;durP1;ratioP1;P1;durP2;ratioP2;P2;SDS_P1;SDS_P2;PMS_P1;PMS_P2;Temp;Humidity;BMP_temperature;BMP_pressure;BME280_temperature;BME280_humidity;BME280_pressure;Samples;Min_cycle;Max_cycle;Signal;HPM_P1;HPM_P2
2023/07/03 00:01:37;;;;;;;10.98;5.80;;;;;;;15.59;100.00;99755.13;4973558;28;20035;-79
2023/07/03 00:04:10;;;;;;;9.05;5.85;;;;;;;15.80;100.00;99781.34;4975293;28;20046;-79
2023/07/03 00:06:45;;;;;;;9.95;5.95;;;;;;;16.12;100.00;99834.88;4975179;28;20030;-79
2023/07/03 00:09:11;;;;;;;9.65;5.38;;;;;;;15.93;100.00;99810.25;4974923;28;20089;-78
2023/07/03 00:11:36;;;;;;;9.60;5.95;;;;;;;15.89;100.00;99793.25;4974638;28;20022;-79
2023/07/03 00:14:02;;;;;;;11.05;5.53;;;;;;;16.18;100.00;99839.81;4974639;28;20027;-80
2023/07/03 00:16:27;;;;;;;9.63;6.25;;;;;;;16.17;100.00;99835.34;4974739;28;20043;-80
2023/07/03 00:18:53;;;;;;;7.88;5.78;;;;;;;16.10;100.00;99823.13;4974719;28;20045;-80
2023/07/03 00:21:20;;;;;;;10.40;5.78;;;;;;;16.12;100.00;99837.75;4972741;28;20047;-80
2023/07/03 00:23:47;;;;;;;8.90;6.22;;;;;;;16.11;100.00;99836.19;4974277;28;20031;-80
2023/07/03 00:26:13;;;;;;;10.23;5.82;;;;;;;15.97;100.00;99822.22;4974671;28;20125;-80
2023/07/03 00:28:38;;;;;;;13.05;6.10;;;;;;;15.87;100.00;99810.31;4974518;28;20464;-80
2023/07/03 00:31:05;;;;;;;9.63;5.75;;;;;;;16.00;100.00;99842.13;4974470;28;20038;-81
2023/07/03 00:33:32;;;;;;;8.95;5.68;;;;;;;15.96;100.00;99838.75;4989714;28;20042;-80
2023/07/03 00:36:00;;;;;;;9.15;6.18;;;;;;;15.92;100.00;99837.50;4974656;28;20062;-79
2023/07/03 00:38:26;;;;;;;10.20;6.00;;;;;;;15.91;100.00;99839.59;4974429;28;20085;-79
2023/07/03 00:40:52;;;;;;;13.57;6.13;;;;;;;15.88;100.00;99829.16;4973185;28;20034;-79
2023/07/03 00:43:18;;;;;;;10.15;6.10;;;;;;;15.85;100.00;99832.34;4972989;28;20034;-79
2023/07/03 00:45:46;;;;;;;14.13;6.47;;;;;;;15.83;100.00;99835.75;4971894;28;20065;-80
2023/07/03 00:48:11;;;;;;;10.85;5.97;;;;;;;15.80;100.00;99831.09;4974443;28;20464;-79
2023/07/03 00:50:38;;;;;;;7.93;5.80;;;;;;;15.76;100.00;99836.34;4973128;28;20026;-81
2023/07/03 00:53:05;;;;;;;7.95;5.70;;;;;;;15.78;100.00;99839.50;4972896;28;20201;-80
2023/07/03 00:55:31;;;;;;;9.95;5.97;;;;;;;15.76;100.00;99839.22;4984969;28;20108;-79
2023/07/03 00:57:57;;;;;;;8.25;6.05;;;;;;;15.76;100.00;99845.00;4975376;28;20033;-79
2023/07/03 01:00:40;;;;;;;13.23;6.13;;;;;;;15.78;100.00;99836.59;4991072;28;20034;-79
2023/07/03 01:03:32;;;;;;;11.40;5.88;;;;;;;15.80;100.00;99839.75;4991343;28;20046;-79
2023/07/03 01:06:16;;;;;;;12.00;6.07;;;;;;;15.80;100.00;99841.84;4994993;28;20498;-81
2023/07/03 01:08:42;;;;;;;12.05;6.10;;;;;;;15.88;100.00;99842.78;4994716;28;20038;-80
2023/07/03 01:11:28;;;;;;;12.63;6.05;;;;;;;15.97;100.00;99842.41;4978728;28;20045;-79
2023/07/03 01:13:56;;;;;;;9.07;5.72;;;;;;;16.00;100.00;99845.00;4995181;28;20072;-78
2023/07/03 01:16:24;;;;;;;13.38;6.57;;;;;;;16.05;100.00;99852.03;4997177;28;20037;-80
2023/07/03 01:18:59;;;;;;;8.52;5.70;;;;;;;16.10;100.00;99845.41;4996038;28;20054;-80
2023/07/03 01:21:32;;;;;;;9.52;6.40;;;;;;;16.13;100.00;99842.22;4995852;28;20117;-80
2023/07/03 01:24:04;;;;;;;9.23;5.88;;;;;;;16.17;100.00;99838.22;4978720;28;20392;-81
2023/07/03 01:26:30;;;;;;;;;;;;;;;16.18;100.00;99843.47;4979955;28;20038;-78
2023/07/03 01:28:58;;;;;;;12.02;5.88;;;;;;;16.20;100.00;99854.47;4995820;28;19910;-80
2023/07/03 01:31:25;;;;;;;11.40;6.22;;;;;;;16.25;100.00;99850.72;4995968;28;20141;-79
2023/07/03 01:33:51;;;;;;;8.23;5.22;;;;;;;16.28;100.00;99847.53;4995877;28;20081;-79
2023/07/03 01:36:18;;;;;;;10.75;6.18;;;;;;;16.29;100.00;99848.31;4996030;28;20030;-79
2023/07/03 01:38:46;;;;;;;9.65;5.57;;;;;;;16.29;100.00;99845.44;4995599;28;20045;-79
2023/07/03 01:41:14;;;;;;;13.82;6.28;;;;;;;16.29;100.00;99849.09;4995750;28;20046;-79
2023/07/03 01:43:40;;;;;;;7.50;5.45;;;;;;;16.32;100.00;99852.97;4995500;28;20041;-81
2023/07/03 01:46:21;;;;;;;9.00;5.55;;;;;;;16.34;100.00;99856.13;4979332;28;20042;-79
2023/07/03 01:48:47;;;;;;;10.63;6.32;;;;;;;16.31;100.00;99860.06;5011698;28;20109;-79
2023/07/03 01:51:19;;;;;;;16.75;5.68;;;;;;;16.30;100.00;99855.66;4996870;28;20174;-79
2023/07/03 01:53:56;;;;;;;9.02;6.35;;;;;;;16.30;100.00;99853.53;4979377;28;20428;-79
2023/07/03 01:56:29;;;;;;;8.40;5.45;;;;;;;16.28;100.00;99847.53;4995466;28;20041;-79
2023/07/03 01:59:02;;;;;;;11.50;5.97;;;;;;;16.30;100.00;99850.66;4995132;28;20027;-78
2023/07/03 02:01:36;;;;;;;10.02;5.43;;;;;;;16.31;100.00;99857.97;4995467;28;20038;-79
2023/07/03 02:04:07;;;;;;;10.35;5.78;;;;;;;16.32;100.00;99852.97;4995239;28;20023;-78
2023/07/03 02:06:53;;;;;;;9.45;6.82;;;;;;;16.33;100.00;99860.31;4995405;28;20526;-78
2023/07/03 02:09:18;;;;;;;10.93;5.82;;;;;;;16.32;100.00;99852.97;4996852;28;20476;-79
2023/07/03 02:11:48;;;;;;;9.52;6.32;;;;;;;16.35;100.00;99851.91;4995429;28;20558;-80
2023/07/03 02:14:15;;;;;;;14.18;6.40;;;;;;;16.35;100.00;99852.66;4995286;28;20034;-79
2023/07/03 02:16:41;;;;;;;9.95;5.88;;;;;;;16.33;100.00;99840.13;4994321;28;20034;-80
2023/07/03 02:19:10;;;;;;;10.23;5.93;;;;;;;16.36;100.00;99842.69;4996424;28;20029;-79
2023/07/03 02:21:38;;;;;;;9.25;6.07;;;;;;;16.40;100.00;99848.94;4995358;28;20104;-79
2023/07/03 02:24:04;;;;;;;7.53;5.03;;;;;;;16.39;100.00;99849.50;4995834;28;20053;-81
2023/07/03 02:26:31;;;;;;;9.95;6.10;;;;;;;16.36;100.00;99850.56;4996305;28;20105;-80
2023/07/03 02:28:57;;;;;;;10.98;6.13;;;;;;;16.27;100.00;99845.97;4996094;28;20026;-78
2023/07/03 02:31:24;;;;;;;9.52;5.93;;;;;;;16.22;100.00;99846.81;4995936;28;20056;-80
2023/07/03 02:33:49;;;;;;;10.10;6.35;;;;;;;16.21;100.00;99853.91;4994091;28;20035;-79
2023/07/03 02:36:16;;;;;;;10.77;6.28;;;;;;;16.27;100.00;99860.38;4995764;28;20515;-79
2023/07/03 02:38:43;;;;;;;9.48;5.57;;;;;;;16.28;100.00;99864.03;4995986;28;20030;-80
2023/07/03 02:41:10;;;;;;;11.60;5.85;;;;;;;16.29;100.00;99856.97;4994842;28;20045;-80
2023/07/03 02:43:35;;;;;;;13.85;6.30;;;;;;;16.27;100.00;99857.50;4996016;28;20357;-80
2023/07/03 02:46:05;;;;;;;8.98;5.45;;;;;;;16.30;100.00;99870.84;4994621;28;20483;-81
2023/07/03 02:48:31;;;;;;;12.23;6.40;;;;;;;16.29;100.00;99869.28;4995680;28;20120;-79
2023/07/03 02:50:56;;;;;;;12.50;5.93;;;;;;;16.29;100.00;99866.41;4994631;28;20134;-80
2023/07/03 02:53:22;;;;;;;10.15;7.03;;;;;;;16.31;100.00;99863.72;4995860;28;20034;-79
2023/07/03 02:55:53;;;;;;;8.35;5.80;;;;;;;16.31;100.00;99857.97;4994290;28;20041;-81
2023/07/03 02:58:18;;;;;;;10.18;6.13;;;;;;;16.32;100.00;99855.88;4994124;28;20030;-79
2023/07/03 03:00:44;;;;;;;13.95;6.20;;;;;;;16.30;100.00;99855.66;4995136;28;20033;-79
2023/07/03 03:03:09;;;;;;;11.20;6.13;;;;;;;16.32;100.00;99859.53;4995087;28;20471;-80
2023/07/03 03:05:34;;;;;;;15.07;6.50;;;;;;;16.32;100.00;99859.53;4995381;28;20077;-79
2023/07/03 03:08:00;;;;;;;12.65;5.97;;;;;;;16.34;100.00;99859.78;4993884;28;20124;-79
2023/07/03 03:10:25;;;;;;;11.57;5.85;;;;;;;16.35;100.00;99866.31;4993756;28;20081;-79
2023/07/03 03:12:51;;;;;;;9.30;5.80;;;;;;;16.37;100.00;99861.56;4995113;28;20116;-79
2023/07/03 03:15:17;;;;;;;7.90;6.07;;;;;;;16.34;100.00;99851.13;4995029;28;20053;-80
2023/07/03 03:17:43;;;;;;;9.15;5.68;;;;;;;16.41;100.00;99859.16;4994760;28;20069;-80
2023/07/03 03:20:10;;;;;;;15.13;7.03;;;;;;;16.42;100.00;99846.28;4994817;28;20022;-81
2023/07/03 03:22:36;;;;;;;13.73;6.05;;;;;;;16.36;100.00;99839.03;4994936;28;20038;-79
2023/07/03 03:25:01;;;;;;;13.98;6.32;;;;;;;16.37;100.00;99850.03;4993219;28;20089;-81
2023/07/03 03:27:26;;;;;;;12.07;7.22;;;;;;;16.33;100.00;99851.66;4994710;28;20081;-80
2023/07/03 03:29:52;;;;;;;12.43;6.25;;;;;;;16.39;100.00;99849.50;4995164;28;20025;-81
2023/07/03 03:32:17;;;;;;;10.23;5.93;;;;;;;16.37;100.00;99850.03;4995390;28;20026;-80
2023/07/03 03:34:43;;;;;;;11.15;6.15;;;;;;;16.44;100.00;99855.19;5014390;28;20093;-80
2023/07/03 03:37:08;;;;;;;24.27;6.53;;;;;;;16.47;100.00;99851.19;5016440;28;20034;-80
2023/07/03 03:39:34;;;;;;;15.90;5.85;;;;;;;16.52;100.00;99858.22;5018492;28;20019;-79
2023/07/03 03:41:59;;;;;;;12.98;6.00;;;;;;;16.57;100.00;99857.38;5007442;28;20438;-80
2023/07/03 03:44:24;;;;;;;8.80;6.25;;;;;;;16.59;100.00;99854.75;4993863;28;20026;-79
2023/07/03 03:46:52;;;;;;;11.02;5.97;;;;;;;16.62;100.00;99853.66;4994832;28;20101;-80
2023/07/03 03:49:19;;;;;;;10.50;6.50;;;;;;;16.61;100.00;99848.41;4994761;28;20085;-79
2023/07/03 03:51:46;;;;;;;12.85;6.32;;;;;;;16.71;100.00;99847.47;4977209;28;20038;-80
2023/07/03 03:54:14;;;;;;;11.07;5.70;;;;;;;16.78;100.00;99843.97;4994578;28;20113;-79
2023/07/03 03:56:40;;;;;;;13.85;6.30;;;;;;;16.86;100.00;99847.00;4993304;28;20026;-81
2023/07/03 03:59:07;;;;;;;12.85;6.57;;;;;;;16.89;100.00;99849.59;4992814;28;20030;-80
2023/07/03 04:01:34;;;;;;;9.00;6.20;;;;;;;16.90;100.00;99841.69;4993238;28;20043;-80
2023/07/03 04:04:08;;;;;;;11.18;6.38;;;;;;;17.01;100.00;99846.50;4993670;28;20104;-80
2023/07/03 04:06:35;;;;;;;23.95;6.72;;;;;;;17.10;100.00;99846.88;4993483;28;20030;-80
2023/07/03 04:09:09;;;;;;;9.18;6.05;;;;;;;17.24;100.00;99857.13;4993352;28;20439;-79
2023/07/03 04:11:35;;;;;;;13.52;6.00;;;;;;;17.35;100.00;99850.38;4994226;28;20061;-80
2023/07/03 04:14:09;;;;;;;16.13;6.10;;;;;;;17.40;100.00;99837.94;4976659;28;20068;-79
2023/07/03 04:16:35;;;;;;;11.80;6.10;;;;;;;17.47;100.00;99848.13;4993869;28;20084;-79
2023/07/03 04:19:01;;;;;;;12.93;6.25;;;;;;;17.51;100.00;99851.44;4994533;28;20094;-80
2023/07/03 04:21:26;;;;;;;10.00;5.72;;;;;;;17.57;100.00;99850.03;4992876;28;20050;-80
2023/07/03 04:23:51;;;;;;;13.93;6.25;;;;;;;17.64;100.00;99846.47;4993284;28;20050;-81
2023/07/03 04:26:18;;;;;;;24.30;6.45;;;;;;;17.68;100.00;99837.50;4982257;28;20050;-80
2023/07/03 04:28:44;;;;;;;14.50;5.93;;;;;;;17.76;100.00;99841.25;4957355;28;20498;-81
2023/07/03 04:31:10;;;;;;;11.82;6.38;;;;;;;17.78;100.00;99835.72;4965976;28;20042;-80
2023/07/03 04:33:38;;;;;;;12.88;6.93;;;;;;;17.82;100.00;99842.72;4994388;28;20034;-79
2023/07/03 04:36:12;;;;;;;18.10;6.93;;;;;;;17.86;100.00;99848.16;4994107;28;20034;-80
2023/07/03 04:38:41;;;;;;;22.45;6.85;;;;;;;17.91;100.00;99844.38;4993282;28;20472;-80
2023/07/03 04:41:08;;;;;;;20.77;7.32;;;;;;;17.96;100.00;99836.94;4997112;28;20042;-80
2023/07/03 04:43:34;;;;;;;16.38;6.07;;;;;;;17.98;100.00;99851.63;4997264;28;20096;-81
2023/07/03 04:46:03;;;;;;;17.75;6.07;;;;;;;18.00;100.00;99846.03;4996006;28;20403;-80
2023/07/03 04:48:30;;;;;;;12.88;6.30;;;;;;;18.08;100.00;99849.84;4978569;28;20031;-80
2023/07/03 04:51:04;;;;;;;26.48;7.13;;;;;;;18.12;100.00;99853.97;4992721;28;20047;-79
2023/07/03 04:53:38;;;;;;;13.98;6.32;;;;;;;18.07;100.00;99840.38;4978596;28;20114;-84
2023/07/03 04:56:04;;;;;;;25.30;6.47;;;;;;;18.10;100.00;99844.25;4993344;28;20062;-85
2023/07/03 04:58:31;;;;;;;12.32;6.40;;;;;;;18.29;100.00;99862.28;4978273;28;20037;-83
2023/07/03 05:00:57;;;;;;;17.13;7.00;;;;;;;18.36;100.00;99852.19;4978530;28;20037;-84
2023/07/03 05:03:23;;;;;;;12.70;6.65;;;;;;;18.39;100.00;99836.59;4978421;28;20027;-84
2023/07/03 05:05:49;;;;;;;26.67;7.10;;;;;;;18.30;100.00;99813.88;4977885;28;20055;-84
2023/07/03 05:08:16;;;;;;;11.75;6.00;;;;;;;18.52;100.00;99833.69;4985760;28;20118;-83
2023/07/03 05:10:41;;;;;;;28.77;7.22;;;;;;;18.67;100.00;99851.97;4982821;28;20031;-84
2023/07/03 05:13:07;;;;;;;15.10;6.32;;;;;;;18.41;100.00;99804.97;4976823;28;20456;-84
2023/07/03 05:15:32;;;;;;;12.63;6.75;;;;;;;18.84;100.00;99862.41;4978461;28;20034;-83
2023/07/03 05:17:58;;;;;;;12.50;6.47;;;;;;;18.80;100.00;99838.81;4976729;28;20559;-83
2023/07/03 05:20:26;;;;;;;15.15;5.93;;;;;;;18.99;100.00;99854.66;4976486;28;20490;-83
2023/07/03 05:22:53;;;;;;;10.38;6.30;;;;;;;19.06;100.00;99844.50;4977939;28;20042;-83
2023/07/03 05:25:19;;;;;;;9.55;6.47;;;;;;;19.15;100.00;99849.06;4977593;28;20089;-84
2023/07/03 05:27:46;;;;;;;15.40;7.32;;;;;;;19.25;100.00;99848.00;4976845;28;20114;-83
2023/07/03 05:30:11;;;;;;;12.52;6.18;;;;;;;19.32;100.00;99844.38;4977242;28;20037;-83
2023/07/03 05:32:37;;;;;;;12.05;6.43;;;;;;;19.42;100.00;99851.25;4983962;28;20038;-83
2023/07/03 05:35:05;;;;;;;14.50;6.30;;;;;;;19.52;100.00;99848.63;4959867;28;20039;-83
2023/07/03 05:37:39;;;;;;;10.55;6.10;;;;;;;19.54;100.00;99854.63;4982898;28;20030;-83
2023/07/03 05:40:08;;;;;;;16.17;6.68;;;;;;;19.61;100.00;99839.41;4977437;28;20023;-83
2023/07/03 05:42:36;;;;;;;14.00;6.43;;;;;;;19.72;100.00;99853.63;4977214;28;20054;-83
2023/07/03 05:45:02;;;;;;;12.07;6.28;;;;;;;19.80;100.00;99844.97;4976274;28;20042;-84
2023/07/03 05:47:27;;;;;;;15.75;6.78;;;;;;;19.85;100.00;99844.06;4976016;28;20031;-83
2023/07/03 05:49:53;;;;;;;12.68;6.05;;;;;;;19.98;100.00;99835.28;4976879;28;20014;-83
2023/07/03 05:52:18;;;;;;;17.23;6.55;;;;;;;20.18;100.00;99843.13;4976662;28;20030;-82
2023/07/03 05:54:44;;;;;;;15.95;5.75;;;;;;;20.52;100.00;99847.94;4977017;28;20100;-83
2023/07/03 05:57:10;;;;;;;14.10;6.30;;;;;;;21.38;100.00;99849.16;4976167;28;20027;-83
2023/07/03 05:59:38;;;;;;;10.13;6.07;;;;;;;22.27;100.00;99852.63;4975679;28;20089;-84
2023/07/03 06:02:06;;;;;;;8.50;5.20;;;;;;;23.04;100.00;99844.34;4991764;28;20479;-82
2023/07/03 06:04:33;;;;;;;12.98;5.22;;;;;;;23.98;100.00;99836.59;4977320;28;20084;-82
2023/07/03 06:06:59;;;;;;;17.52;5.72;;;;;;;25.26;100.00;99840.09;4990750;28;20104;-82
2023/07/03 06:09:27;;;;;;;15.75;6.43;;;;;;;26.52;96.38;99844.13;4995312;28;20029;-83
2023/07/03 06:11:52;;;;;;;12.60;6.00;;;;;;;27.63;90.88;99854.59;4995306;28;20506;-85
2023/07/03 06:14:20;;;;;;;12.65;5.53;;;;;;;28.23;84.23;99847.16;4995223;28;20019;-84
2023/07/03 06:16:46;;;;;;;13.55;6.38;;;;;;;28.74;75.05;99850.59;4996428;28;20379;-83
2023/07/03 06:19:13;;;;;;;14.95;6.80;;;;;;;29.14;67.70;99846.66;4996358;28;20029;-83
2023/07/03 06:21:38;;;;;;;11.68;5.43;;;;;;;29.37;63.43;99845.97;4996350;28;20487;-82
2023/07/03 06:24:05;;;;;;;12.68;6.43;;;;;;;29.75;63.74;99845.50;4996166;28;20045;-84
2023/07/03 06:26:33;;;;;;;13.73;6.43;;;;;;;30.20;56.67;99852.00;4996055;28;20045;-82
2023/07/03 06:28:59;;;;;;;11.77;6.60;;;;;;;30.54;50.27;99853.31;4996549;28;20028;-84
2023/07/03 06:31:24;;;;;;;9.77;6.07;;;;;;;30.90;46.83;99851.81;4995910;28;20018;-85
2023/07/03 06:33:50;;;;;;;14.35;6.35;;;;;;;31.50;47.49;99859.69;4995010;28;20534;-83
2023/07/03 06:36:20;;;;;;;18.63;6.70;;;;;;;32.05;40.52;99872.34;4994732;28;20026;-82
2023/07/03 06:38:56;;;;;;;12.20;6.20;;;;;;;32.67;41.71;99866.84;4994697;28;20483;-82
2023/07/03 06:41:23;;;;;;;10.57;6.30;;;;;;;33.38;40.89;99869.63;4996202;28;20073;-81
2023/07/03 06:43:49;;;;;;;6.35;5.47;;;;;;;34.03;38.24;99860.88;4996139;28;20050;-75
2023/07/03 06:46:14;;;;;;;10.93;5.50;;;;;;;34.51;36.63;99856.38;4995939;28;20499;-83
2023/07/03 06:48:40;;;;;;;13.55;6.63;;;;;;;35.00;36.23;99862.22;4996113;28;20057;-85
2023/07/03 06:51:08;;;;;;;8.70;6.13;;;;;;;35.64;34.51;99860.41;4978454;28;20033;-77
2023/07/03 06:53:33;;;;;;;8.48;5.45;;;;;;;35.85;33.58;99845.63;4995485;28;20469;-74
2023/07/03 06:55:59;;;;;;;12.35;5.70;;;;;;;36.11;33.51;99848.84;4995787;28;20156;-76
2023/07/03 06:58:26;;;;;;;12.00;6.30;;;;;;;36.46;33.78;99838.97;4995425;28;20026;-77
2023/07/03 07:00:52;;;;;;;10.73;6.45;;;;;;;36.71;31.87;99850.28;4995634;28;20037;-76
2023/07/03 07:03:17;;;;;;;10.88;6.22;;;;;;;36.96;27.88;99839.22;4994359;28;20034;-74
2023/07/03 07:05:43;;;;;;;8.30;6.07;;;;;;;37.03;28.68;99832.03;4978001;28;20084;-74
2023/07/03 07:08:10;;;;;;;13.10;6.60;;;;;;;37.07;27.44;99826.97;4995316;28;20118;-76
2023/07/03 07:10:39;;;;;;;10.82;6.72;;;;;;;36.87;26.61;99821.06;4995270;28;20023;-76
2023/07/03 07:13:05;;;;;;;9.82;7.47;;;;;;;36.93;27.20;99828.72;4995214;28;20034;-75
2023/07/03 07:15:35;;;;;;;12.48;7.28;;;;;;;37.06;26.23;99827.66;4995297;28;20023;-76
2023/07/03 07:18:00;;;;;;;9.48;7.35;;;;;;;37.10;26.34;99821.81;4993969;28;20022;-75
2023/07/03 07:20:26;;;;;;;9.88;6.85;;;;;;;37.37;26.69;99818.25;4993774;28;20076;-73
2023/07/03 07:22:51;;;;;;;12.27;7.13;;;;;;;37.50;25.24;99823.13;4993838;28;20073;-75
2023/07/03 07:25:17;;;;;;;10.63;7.15;;;;;;;37.45;24.00;99815.50;4994697;28;20046;-74
2023/07/03 07:27:42;;;;;;;9.75;6.75;;;;;;;37.61;24.43;99804.09;4978836;28;20031;-74
2023/07/03 07:30:08;;;;;;;10.90;7.13;;;;;;;37.87;23.12;99822.03;4991682;28;20018;-75
2023/07/03 07:32:33;;;;;;;9.20;6.53;;;;;;;37.96;22.73;99799.91;4994638;28;20114;-76
2023/07/03 07:34:59;;;;;;;9.68;6.88;;;;;;;38.12;22.34;99805.56;4977231;28;20018;-77
2023/07/03 07:37:24;;;;;;;10.18;6.03;;;;;;;38.20;23.31;99799.09;4977441;28;20026;-77
2023/07/03 07:39:49;;;;;;;10.00;6.35;;;;;;;38.49;23.67;99799.16;4994486;28;20452;-76
2023/07/03 07:42:15;;;;;;;12.85;6.45;;;;;;;38.84;23.12;99785.88;4994468;28;20086;-77
2023/07/03 07:44:40;;;;;;;11.30;6.65;;;;;;;38.49;22.29;99795.41;4994739;28;20383;-75
2023/07/03 07:47:06;;;;;;;11.52;6.60;;;;;;;38.33;22.27;99795.75;4995112;28;20025;-76
2023/07/03 07:49:31;;;;;;;9.73;6.57;;;;;;;38.07;22.22;99804.69;4997053;28;20415;-74
2023/07/03 07:51:57;;;;;;;9.20;6.50;;;;;;;37.83;22.60;99797.28;4996818;28;20384;-77
2023/07/03 07:54:22;;;;;;;12.77;6.38;;;;;;;37.65;22.41;99794.50;4996593;28;20034;-76
2023/07/03 07:56:47;;;;;;;10.90;6.70;;;;;;;37.58;22.57;99796.53;4995196;28;20463;-75
2023/07/03 07:59:13;;;;;;;11.82;6.80;;;;;;;37.38;23.12;99789.16;4994141;28;20030;-75
2023/07/03 08:01:38;;;;;;;9.88;6.35;;;;;;;37.59;22.50;99794.31;4994031;28;20034;-75
2023/07/03 08:04:04;;;;;;;10.55;5.75;;;;;;;37.54;23.21;99786.69;4994018;28;20027;-74
2023/07/03 08:06:29;;;;;;;10.90;6.25;;;;;;;37.25;23.55;99779.84;4994147;28;20031;-74
2023/07/03 08:08:55;;;;;;;9.70;6.05;;;;;;;37.26;23.61;99784.34;4994284;28;20056;-77
2023/07/03 08:11:20;;;;;;;9.75;6.93;;;;;;;37.09;22.70;99782.31;4976366;28;20080;-76
2023/07/03 08:13:45;;;;;;;13.18;6.80;;;;;;;37.02;23.73;99776.84;4975944;28;20061;-77
2023/07/03 08:16:11;;;;;;;12.82;6.85;;;;;;;37.23;23.64;99776.03;4994182;28;20117;-75
2023/07/03 08:18:37;;;;;;;9.07;5.97;;;;;;;37.52;23.35;99774.72;4993894;28;20096;-76
2023/07/03 08:21:03;;;;;;;8.85;6.60;;;;;;;37.50;23.44;99774.66;4994679;28;20026;-77
2023/07/03 08:23:30;;;;;;;10.00;6.38;;;;;;;37.21;23.13;99770.78;4994298;28;20034;-75
2023/07/03 08:25:56;;;;;;;9.77;7.00;;;;;;;36.32;23.73;99770.75;4993508;28;20050;-74
2023/07/03 08:28:22;;;;;;;8.93;6.85;;;;;;;34.97;25.16;99778.19;4993896;28;20045;-75
2023/07/03 08:30:47;;;;;;;11.45;6.78;;;;;;;33.66;26.50;99775.41;4993492;28;20026;-74
2023/07/03 08:33:14;;;;;;;12.20;7.28;;;;;;;32.66;28.65;99781.63;4992266;28;20026;-73
2023/07/03 08:35:40;;;;;;;13.70;7.80;;;;;;;32.24;29.04;99775.06;4993778;28;20217;-75
2023/07/03 08:38:05;;;;;;;12.98;7.45;;;;;;;32.18;28.37;99779.94;4993513;28;20026;-72
2023/07/03 08:40:31;;;;;;;12.38;7.53;;;;;;;32.09;28.43;99772.78;4992259;28;20027;-72
2023/07/03 08:42:59;;;;;;;13.90;7.07;;;;;;;30.98;28.96;99775.50;4986048;28;20042;-72
2023/07/03 08:45:41;;;;;;;16.77;8.57;;;;;;;30.39;31.13;99783.09;4979824;28;20037;-72
2023/07/03 08:48:19;;;;;;;13.25;7.63;;;;;;;30.65;31.12;99783.91;4971917;28;20388;-72
2023/07/03 08:50:47;;;;;;;14.13;7.68;;;;;;;31.39;29.87;99776.41;4969776;28;20077;-72
2023/07/03 08:53:17;;;;;;;18.90;8.05;;;;;;;31.71;28.98;99782.56;4969154;28;20031;-75
2023/07/03 08:55:48;;;;;;;14.90;6.90;;;;;;;32.57;29.43;99779.69;4970646;28;20034;-73
2023/07/03 08:58:14;;;;;;;12.57;6.93;;;;;;;32.50;29.82;99777.84;4969224;28;20034;-74
2023/07/03 09:00:53;;;;;;;15.20;8.00;;;;;;;32.99;28.72;99781.06;4968894;28;20035;-73
2023/07/03 09:03:37;;;;;;;11.20;6.95;;;;;;;33.42;27.79;99772.06;4985268;28;20023;-72
2023/07/03 09:06:23;;;;;;;11.95;7.35;;;;;;;33.30;27.75;99789.25;4986381;28;20037;-74
2023/07/03 09:08:48;;;;;;;13.95;7.95;;;;;;;33.19;27.93;99772.41;4987084;28;20034;-73
2023/07/03 09:11:15;;;;;;;14.75;6.93;;;;;;;33.12;27.91;99771.34;4972948;28;20416;-73
2023/07/03 09:13:46;;;;;;;13.05;7.95;;;;;;;32.59;27.89;99774.63;4972965;28;20031;-72
2023/07/03 09:16:19;;;;;;;12.70;7.13;;;;;;;32.49;28.61;99773.34;4989203;28;20435;-74
2023/07/03 09:18:51;;;;;;;14.65;7.35;;;;;;;32.15;29.08;99772.31;4974164;28;20551;-72
2023/07/03 09:21:17;;;;;;;15.13;8.20;;;;;;;31.96;28.75;99782.44;4956888;28;20033;-73
2023/07/03 09:23:49;;;;;;;25.63;8.30;;;;;;;32.13;27.72;99770.03;4973791;28;20461;-72
2023/07/03 09:26:15;;;;;;;13.43;7.78;;;;;;;31.74;28.49;99793.09;4975649;28;20038;-74
2023/07/03 09:28:41;;;;;;;17.60;7.55;;;;;;;30.86;30.20;99771.88;4977948;28;20027;-72
2023/07/03 09:31:06;;;;;;;13.18;7.65;;;;;;;30.77;30.71;99781.66;4978317;28;20023;-71
2023/07/03 09:33:32;;;;;;;14.25;8.07;;;;;;;31.17;30.42;99789.91;4977698;28;20030;-72
2023/07/03 09:36:02;;;;;;;15.80;7.43;;;;;;;31.47;28.93;99790.06;4977511;28;20475;-71
2023/07/03 09:38:27;;;;;;;13.82;7.25;;;;;;;31.10;30.23;99781.34;4977706;28;20029;-73
2023/07/03 09:40:54;;;;;;;13.85;7.93;;;;;;;31.23;29.74;99784.34;4992253;28;20026;-74
2023/07/03 09:43:23;;;;;;;17.05;8.35;;;;;;;30.43;31.02;99795.91;4977753;28;20026;-72
2023/07/03 09:45:50;;;;;;;16.02;7.40;;;;;;;30.56;31.34;99779.72;4977404;28;20383;-72
2023/07/03 09:48:24;;;;;;;12.77;8.15;;;;;;;30.62;30.09;99785.16;4977682;28;20033;-72
2023/07/03 09:50:50;;;;;;;13.70;7.32;;;;;;;30.89;29.48;99792.00;4976138;28;20031;-72
2023/07/03 09:53:21;;;;;;;12.90;7.47;;;;;;;30.87;29.67;99802.91;4975954;28;20089;-73
2023/07/03 09:55:54;;;;;;;14.05;7.75;;;;;;;30.33;31.12;99786.44;4975905;28;20026;-73
2023/07/03 09:58:23;;;;;;;14.88;7.78;;;;;;;29.16;32.60;99770.28;4977007;28;20030;-73
2023/07/03 10:00:50;;;;;;;13.60;7.32;;;;;;;28.97;32.96;99797.75;4977067;28;20024;-73
2023/07/03 10:03:27;;;;;;;18.55;7.63;;;;;;;28.72;33.70;99785.78;4977065;28;20062;-73
2023/07/03 10:05:57;;;;;;;13.30;7.25;;;;;;;29.23;33.49;99781.81;4977185;28;20090;-73
2023/07/03 10:08:27;;;;;;;13.73;7.40;;;;;;;29.76;33.21;99787.34;4992182;28;20043;-74
2023/07/03 10:10:55;;;;;;;13.77;7.50;;;;;;;29.53;32.78;99776.28;4976842;28;20023;-73
2023/07/03 10:13:30;;;;;;;15.27;8.45;;;;;;;28.88;32.86;99790.53;4959478;28;20050;-73
2023/07/03 10:15:55;;;;;;;13.70;7.78;;;;;;;27.91;35.64;99792.00;4975979;28;20034;-74
2023/07/03 10:18:32;;;;;;;15.07;7.55;;;;;;;27.77;36.44;99794.69;4975401;28;20030;-72
2023/07/03 10:21:01;;;;;;;12.98;7.82;;;;;;;27.78;34.72;99799.16;4991798;28;20105;-73
2023/07/03 10:23:30;;;;;;;17.38;7.97;;;;;;;27.62;34.23;99780.41;4976539;28;20038;-73
2023/07/03 10:25:59;;;;;;;10.73;7.90;;;;;;;27.32;37.11;99805.44;4991519;28;20051;-74
2023/07/03 10:28:33;;;;;;;17.33;8.05;;;;;;;26.90;37.24;99805.25;4976499;28;20031;-74
2023/07/03 10:31:02;;;;;;;16.30;7.50;;;;;;;26.42;37.99;99805.28;4959319;28;20118;-72
2023/07/03 10:33:34;;;;;;;16.73;8.60;;;;;;;26.36;38.89;99817.31;4975652;28;20062;-72
2023/07/03 10:36:03;;;;;;;15.27;9.25;;;;;;;26.39;39.20;99809.44;4975432;28;20027;-72
2023/07/03 10:38:38;;;;;;;17.83;8.48;;;;;;;26.47;40.66;99795.41;4974575;28;20442;-72
2023/07/03 10:41:15;;;;;;;14.98;8.65;;;;;;;26.31;41.07;99794.94;4976262;28;20019;-74
2023/07/03 10:43:46;;;;;;;12.73;7.45;;;;;;;26.10;38.68;99812.31;4976539;28;20027;-73
2023/07/03 10:46:19;;;;;;;14.60;7.90;;;;;;;25.79;42.53;99809.19;4991806;28;20054;-73
2023/07/03 10:48:44;;;;;;;19.08;8.32;;;;;;;25.43;42.89;99804.88;4975103;28;20034;-73
2023/07/03 10:51:19;;;;;;;18.27;7.72;;;;;;;25.23;47.93;99803.28;4975011;28;20022;-73
2023/07/03 10:54:00;;;;;;;16.20;8.60;;;;;;;25.40;47.63;99805.34;4974855;28;20037;-73
2023/07/03 10:56:34;;;;;;;16.42;8.57;;;;;;;25.36;48.95;99796.25;4974958;28;20105;-73
2023/07/03 10:59:07;;;;;;;13.20;7.82;;;;;;;25.36;45.37;99802.88;4975871;28;20361;-73
2023/07/03 11:01:57;;;;;;;18.13;8.63;;;;;;;25.15;44.22;99808.47;4991073;28;20101;-72
2023/07/03 11:04:32;;;;;;;14.45;7.28;;;;;;;25.08;46.90;99797.69;4990831;28;20068;-72
2023/07/03 11:07:01;;;;;;;15.00;7.65;;;;;;;25.19;46.99;99794.16;4991225;28;20043;-74
2023/07/03 11:09:41;;;;;;;17.60;8.73;;;;;;;25.39;46.57;99795.00;4975770;28;20033;-73
2023/07/03 11:12:19;;;;;;;13.88;8.10;;;;;;;25.53;48.15;99793.25;4975891;28;20113;-72
2023/07/03 11:14:58;;;;;;;15.20;7.82;;;;;;;25.32;47.59;99793.78;4975615;28;20037;-73
2023/07/03 11:17:50;;;;;;;16.00;8.55;;;;;;;25.18;47.65;99786.78;4975823;28;20432;-74
2023/07/03 11:20:38;;;;;;;16.55;8.27;;;;;;;25.28;46.41;99784.69;4974223;28;20027;-73
2023/07/03 11:23:03;;;;;;;16.67;7.80;;;;;;;25.32;45.13;99779.16;4975513;28;20042;-72
2023/07/03 11:25:45;;;;;;;14.68;7.38;;;;;;;25.02;47.32;99785.47;4975407;28;20051;-73
2023/07/03 11:28:43;;;;;;;14.95;7.40;;;;;;;24.93;47.55;99786.22;4973747;28;20089;-73